sensor_id;sensor_type;location;lat;lon;timestamp;pressure;altitude;pressure_sealevel;temperature;humidity
15678;BME280;7939;50.814;6.368;2023-07-28T00:02:00;98942.50;;;21.28;66.54
15678;BME280;7939;50.814;6.368;2023-07-28T00:04:26;98949.38;;;21.30;66.43
15678;BME280;7939;50.814;6.368;2023-07-28T00:06:53;98949.38;;;21.30;66.52
15678;BME280;7939;50.814;6.368;2023-07-28T00:09:20;98954.56;;;21.30;66.67
15678;BME280;7939;50.814;6.368;2023-07-28T00:11:48;98957.16;;;21.30;66.38
15678;BME280;7939;50.814;6.368;2023-07-28T00:14:16;98953.78;;;21.27;66.64
15678;BME280;7939;50.814;6.368;2023-07-28T00:16:43;98957.22;;;21.28;66.61
15678;BME280;7939;50.814;6.368;2023-07-28T00:19:09;98963.28;;;21.28;66.55
15678;BME280;7939;50.814;6.368;2023-07-28T00:21:36;98958.91;;;21.29;66.54
15678;BME280;7939;50.814;6.368;2023-07-28T00:24:03;98950.34;;;21.27;66.66
15678;BME280;7939;50.814;6.368;2023-07-28T00:26:30;98956.31;;;21.29;66.58
15678;BME280;7939;50.814;6.368;2023-07-28T00:28:56;98957.16;;;21.30;66.75
15678;BME280;7939;50.814;6.368;2023-07-28T00:31:25;98946.81;;;21.28;66.70
15678;BME280;7939;50.814;6.368;2023-07-28T00:33:52;98949.38;;;21.30;66.59
15678;BME280;7939;50.814;6.368;2023-07-28T00:36:19;98935.53;;;21.29;66.61
15678;BME280;7939;50.814;6.368;2023-07-28T00:38:45;98944.22;;;21.28;66.54
15678;BME280;7939;50.814;6.368;2023-07-28T00:41:12;98941.56;;;21.30;66.54
15678;BME280;7939;50.814;6.368;2023-07-28T00:43:39;98945.09;;;21.28;67.17
15678;BME280;7939;50.814;6.368;2023-07-28T00:46:05;98941.63;;;21.28;66.79
15678;BME280;7939;50.814;6.368;2023-07-28T00:48:34;98938.19;;;21.27;66.74
15678;BME280;7939;50.814;6.368;2023-07-28T00:51:00;98940.78;;;21.27;66.80
15678;BME280;7939;50.814;6.368;2023-07-28T00:53:28;98942.56;;;21.27;66.75
15678;BME280;7939;50.814;6.368;2023-07-28T00:55:56;98945.16;;;21.27;66.71
15678;BME280;7939;50.814;6.368;2023-07-28T00:58:22;98943.41;;;21.27;66.75
15678;BME280;7939;50.814;6.368;2023-07-28T01:00:49;98937.19;;;21.30;66.44
15678;BME280;7939;50.814;6.368;2023-07-28T01:03:17;98932.94;;;21.29;66.69
15678;BME280;7939;50.814;6.368;2023-07-28T01:05:51;98932.09;;;21.28;66.59
15678;BME280;7939;50.814;6.368;2023-07-28T01:08:27;98943.31;;;21.29;66.64
15678;BME280;7939;50.814;6.368;2023-07-28T01:10:56;98939.91;;;21.28;66.49
15678;BME280;7939;50.814;6.368;2023-07-28T01:13:22;98931.22;;;21.28;66.82
15678;BME280;7939;50.814;6.368;2023-07-28T01:15:49;98928.72;;;21.26;66.77
15678;BME280;7939;50.814;6.368;2023-07-28T01:18:15;98932.09;;;21.28;66.71
15678;BME280;7939;50.814;6.368;2023-07-28T01:20:42;98933.94;;;21.26;66.84
15678;BME280;7939;50.814;6.368;2023-07-28T01:23:19;98933.84;;;21.28;66.70
15678;BME280;7939;50.814;6.368;2023-07-28T01:25:58;98937.28;;;21.28;66.71
15678;BME280;7939;50.814;6.368;2023-07-28T01:28:31;98942.66;;;21.25;67.08
15678;BME280;7939;50.814;6.368;2023-07-28T01:31:01;98941.72;;;21.26;66.93
15678;BME280;7939;50.814;6.368;2023-07-28T01:33:28;98941.72;;;21.26;66.70
15678;BME280;7939;50.814;6.368;2023-07-28T01:35:55;98941.72;;;21.26;66.87
15678;BME280;7939;50.814;6.368;2023-07-28T01:38:21;98939.97;;;21.27;66.80
15678;BME280;7939;50.814;6.368;2023-07-28T01:40:48;98939.13;;;21.26;66.95
15678;BME280;7939;50.814;6.368;2023-07-28T01:43:15;98931.44;;;21.25;67.08
15678;BME280;7939;50.814;6.368;2023-07-28T01:45:43;98936.63;;;21.25;67.15
15678;BME280;7939;50.814;6.368;2023-07-28T01:48:10;98933.16;;;21.24;67.09
15678;BME280;7939;50.814;6.368;2023-07-28T01:50:36;98937.47;;;21.25;67.25
15678;BME280;7939;50.814;6.368;2023-07-28T01:53:04;98931.34;;;21.26;67.07
15678;BME280;7939;50.814;6.368;2023-07-28T01:55:31;98928.81;;;21.25;66.98
15678;BME280;7939;50.814;6.368;2023-07-28T01:57:59;98928.72;;;21.26;67.07
15678;BME280;7939;50.814;6.368;2023-07-28T02:00:26;98937.47;;;21.25;67.18
15678;BME280;7939;50.814;6.368;2023-07-28T02:02:54;98934.84;;;21.25;67.24
15678;BME280;7939;50.814;6.368;2023-07-28T02:05:23;98936.53;;;21.26;66.99
15678;BME280;7939;50.814;6.368;2023-07-28T02:07:50;98928.72;;;21.26;67.10
15678;BME280;7939;50.814;6.368;2023-07-28T02:10:17;98934.84;;;21.25;67.13
15678;BME280;7939;50.814;6.368;2023-07-28T02:12:44;98930.50;;;21.26;67.22
15678;BME280;7939;50.814;6.368;2023-07-28T02:15:11;98933.16;;;21.24;67.44
15678;BME280;7939;50.814;6.368;2023-07-28T02:17:38;98940.06;;;21.25;67.25
15678;BME280;7939;50.814;6.368;2023-07-28T02:20:07;98927.97;;;21.24;67.09
15678;BME280;7939;50.814;6.368;2023-07-28T02:22:36;98934.75;;;21.27;67.03
15678;BME280;7939;50.814;6.368;2023-07-28T02:25:03;98931.50;;;21.23;67.26
15678;BME280;7939;50.814;6.368;2023-07-28T02:27:30;98932.31;;;21.24;67.21
15678;BME280;7939;50.814;6.368;2023-07-28T02:29:56;98942.66;;;21.25;67.43
15678;BME280;7939;50.814;6.368;2023-07-28T02:32:23;98926.28;;;21.23;67.39
15678;BME280;7939;50.814;6.368;2023-07-28T02:34:50;98922.94;;;21.21;67.74
15678;BME280;7939;50.814;6.368;2023-07-28T02:37:18;98934.09;;;21.23;67.33
15678;BME280;7939;50.814;6.368;2023-07-28T02:39:44;98938.53;;;21.21;67.74
15678;BME280;7939;50.814;6.368;2023-07-28T02:42:11;98938.44;;;21.23;67.69
15678;BME280;7939;50.814;6.368;2023-07-28T02:44:38;98924.63;;;21.22;67.80
15678;BME280;7939;50.814;6.368;2023-07-28T02:47:05;98933.34;;;21.21;67.87
15678;BME280;7939;50.814;6.368;2023-07-28T02:49:32;98943.66;;;21.23;67.64
15678;BME280;7939;50.814;6.368;2023-07-28T02:51:59;98942.81;;;21.22;68.17
15678;BME280;7939;50.814;6.368;2023-07-28T02:54:27;98942.91;;;21.21;67.62
15678;BME280;7939;50.814;6.368;2023-07-28T02:56:53;98949.63;;;21.25;67.67
15678;BME280;7939;50.814;6.368;2023-07-28T02:59:21;98948.84;;;21.23;67.68
15678;BME280;7939;50.814;6.368;2023-07-28T03:01:47;98942.81;;;21.22;67.59
15678;BME280;7939;50.814;6.368;2023-07-28T03:04:17;98946.16;;;21.24;67.65
15678;BME280;7939;50.814;6.368;2023-07-28T03:06:44;98945.31;;;21.24;67.77
15678;BME280;7939;50.814;6.368;2023-07-28T03:09:10;98948.75;;;21.24;67.86
15678;BME280;7939;50.814;6.368;2023-07-28T03:11:39;98953.13;;;21.24;67.59
15678;BME280;7939;50.814;6.368;2023-07-28T03:14:06;98951.34;;;21.24;67.78
15678;BME280;7939;50.814;6.368;2023-07-28T03:16:32;98953.22;;;21.22;67.61
15678;BME280;7939;50.814;6.368;2023-07-28T03:18:59;98956.63;;;21.23;67.86
15678;BME280;7939;50.814;6.368;2023-07-28T03:21:29;98956.53;;;21.24;67.59
15678;BME280;7939;50.814;6.368;2023-07-28T03:23:55;98955.81;;;21.22;67.78
15678;BME280;7939;50.814;6.368;2023-07-28T03:26:22;98955.81;;;21.22;67.78
15678;BME280;7939;50.814;6.368;2023-07-28T03:28:50;98961.00;;;21.22;67.88
15678;BME280;7939;50.814;6.368;2023-07-28T03:31:17;98968.81;;;21.22;67.80
15678;BME280;7939;50.814;6.368;2023-07-28T03:33:44;98961.94;;;21.21;68.01
15678;BME280;7939;50.814;6.368;2023-07-28T03:36:11;98961.94;;;21.21;68.04
15678;BME280;7939;50.814;6.368;2023-07-28T03:38:38;98963.59;;;21.22;67.88
15678;BME280;7939;50.814;6.368;2023-07-28T03:41:04;98961.84;;;21.23;68.18
15678;BME280;7939;50.814;6.368;2023-07-28T03:43:32;98958.41;;;21.22;68.05
15678;BME280;7939;50.814;6.368;2023-07-28T03:46:00;98964.53;;;21.21;67.95
15678;BME280;7939;50.814;6.368;2023-07-28T03:48:27;98960.25;;;21.20;68.07
15678;BME280;7939;50.814;6.368;2023-07-28T03:50:54;98972.31;;;21.21;68.19
15678;BME280;7939;50.814;6.368;2023-07-28T03:53:20;98961.94;;;21.21;67.97
15678;BME280;7939;50.814;6.368;2023-07-28T03:55:47;98976.59;;;21.22;68.00
15678;BME280;7939;50.814;6.368;2023-07-28T03:58:13;98969.63;;;21.23;67.84
15678;BME280;7939;50.814;6.368;2023-07-28T04:00:40;98972.22;;;21.23;68.13
15678;BME280;7939;50.814;6.368;2023-07-28T04:03:08;98967.22;;;21.20;68.26
15678;BME280;7939;50.814;6.368;2023-07-28T04:05:36;98974.09;;;21.21;68.31
15678;BME280;7939;50.814;6.368;2023-07-28T04:08:02;98971.50;;;21.21;68.04
15678;BME280;7939;50.814;6.368;2023-07-28T04:10:29;98967.97;;;21.22;68.05
15678;BME280;7939;50.814;6.368;2023-07-28T04:12:55;98970.66;;;21.20;68.02
15678;BME280;7939;50.814;6.368;2023-07-28T04:15:22;98968.81;;;21.22;67.84
15678;BME280;7939;50.814;6.368;2023-07-28T04:17:49;98974.00;;;21.22;67.94
15678;BME280;7939;50.814;6.368;2023-07-28T04:20:17;98972.22;;;21.23;68.13
15678;BME280;7939;50.814;6.368;2023-07-28T04:22:43;98978.34;;;21.22;68.11
15678;BME280;7939;50.814;6.368;2023-07-28T04:25:10;98970.56;;;21.22;68.16
15678;BME280;7939;50.814;6.368;2023-07-28T04:27:36;98972.22;;;21.23;68.26
15678;BME280;7939;50.814;6.368;2023-07-28T04:30:03;98974.09;;;21.21;68.58
15678;BME280;7939;50.814;6.368;2023-07-28T04:32:30;98969.72;;;21.21;68.29
15678;BME280;7939;50.814;6.368;2023-07-28T04:34:57;98979.19;;;21.22;68.20
15678;BME280;7939;50.814;6.368;2023-07-28T04:37:25;98982.63;;;21.23;68.13
15678;BME280;7939;50.814;6.368;2023-07-28T04:39:51;98979.28;;;21.21;68.31
15678;BME280;7939;50.814;6.368;2023-07-28T04:42:18;98982.72;;;21.21;68.21
15678;BME280;7939;50.814;6.368;2023-07-28T04:44:45;98983.56;;;21.22;68.24
15678;BME280;7939;50.814;6.368;2023-07-28T04:47:11;98988.75;;;21.22;68.30
15678;BME280;7939;50.814;6.368;2023-07-28T04:49:38;98990.63;;;21.20;68.39
15678;BME280;7939;50.814;6.368;2023-07-28T04:52:06;98991.44;;;21.20;68.56
15678;BME280;7939;50.814;6.368;2023-07-28T04:54:34;98986.25;;;21.20;68.64
15678;BME280;7939;50.814;6.368;2023-07-28T04:57:01;98988.75;;;21.22;68.44
15678;BME280;7939;50.814;6.368;2023-07-28T04:59:27;98994.03;;;21.20;68.51
15678;BME280;7939;50.814;6.368;2023-07-28T05:01:54;98999.16;;;21.22;68.65
15678;BME280;7939;50.814;6.368;2023-07-28T05:04:20;98996.66;;;21.20;69.17
15678;BME280;7939;50.814;6.368;2023-07-28T05:06:47;99002.69;;;21.21;68.87
15678;BME280;7939;50.814;6.368;2023-07-28T05:09:14;99013.81;;;21.23;68.67
15678;BME280;7939;50.814;6.368;2023-07-28T05:11:42;99010.38;;;21.22;68.64
15678;BME280;7939;50.814;6.368;2023-07-28T05:14:08;99007.03;;;21.20;69.01
15678;BME280;7939;50.814;6.368;2023-07-28T05:16:35;99016.41;;;21.23;68.61
15678;BME280;7939;50.814;6.368;2023-07-28T05:19:04;99017.25;;;21.23;68.83
15678;BME280;7939;50.814;6.368;2023-07-28T05:21:31;99004.34;;;21.22;68.58
15678;BME280;7939;50.814;6.368;2023-07-28T05:23:58;99006.00;;;21.23;68.95
15678;BME280;7939;50.814;6.368;2023-07-28T05:26:25;99013.81;;;21.23;69.13
15678;BME280;7939;50.814;6.368;2023-07-28T05:28:53;99011.22;;;21.23;68.97
15678;BME280;7939;50.814;6.368;2023-07-28T05:31:20;99012.97;;;21.22;69.32
15678;BME280;7939;50.814;6.368;2023-07-28T05:33:46;99020.78;;;21.22;69.24
15678;BME280;7939;50.814;6.368;2023-07-28T05:36:13;99016.31;;;21.24;68.98
15678;BME280;7939;50.814;6.368;2023-07-28T05:38:39;99022.28;;;21.26;68.98
15678;BME280;7939;50.814;6.368;2023-07-28T05:41:06;99017.09;;;21.26;69.07
15678;BME280;7939;50.814;6.368;2023-07-28T05:43:33;99019.69;;;21.26;69.03
15678;BME280;7939;50.814;6.368;2023-07-28T05:46:01;99024.88;;;21.26;69.18
15678;BME280;7939;50.814;6.368;2023-07-28T05:48:28;99033.53;;;21.27;69.09
15678;BME280;7939;50.814;6.368;2023-07-28T05:50:54;99036.13;;;21.27;69.00
15678;BME280;7939;50.814;6.368;2023-07-28T05:53:21;99040.47;;;21.26;69.52
15678;BME280;7939;50.814;6.368;2023-07-28T05:55:48;99042.97;;;21.28;69.13
15678;BME280;7939;50.814;6.368;2023-07-28T05:58:14;99042.97;;;21.28;69.09
15678;BME280;7939;50.814;6.368;2023-07-28T06:00:41;99046.44;;;21.28;69.13
15678;BME280;7939;50.814;6.368;2023-07-28T06:03:10;99048.19;;;21.28;69.04
15678;BME280;7939;50.814;6.368;2023-07-28T06:05:38;99044.75;;;21.27;69.21
15678;BME280;7939;50.814;6.368;2023-07-28T06:08:05;99054.25;;;21.28;69.07
15678;BME280;7939;50.814;6.368;2023-07-28T06:10:32;99052.53;;;21.27;69.36
15678;BME280;7939;50.814;6.368;2023-07-28T06:12:58;99055.91;;;21.30;69.40
15678;BME280;7939;50.814;6.368;2023-07-28T06:15:25;99053.31;;;21.30;69.22
15678;BME280;7939;50.814;6.368;2023-07-28T06:17:52;99050.66;;;21.31;69.04
15678;BME280;7939;50.814;6.368;2023-07-28T06:20:20;99052.38;;;21.31;69.03
15678;BME280;7939;50.814;6.368;2023-07-28T06:22:47;99051.56;;;21.30;69.35
15678;BME280;7939;50.814;6.368;2023-07-28T06:25:13;99056.69;;;21.32;69.38
15678;BME280;7939;50.814;6.368;2023-07-28T06:27:40;99061.94;;;21.30;69.56
15678;BME280;7939;50.814;6.368;2023-07-28T06:30:09;99060.19;;;21.31;69.45
15678;BME280;7939;50.814;6.368;2023-07-28T06:32:35;99070.53;;;21.32;69.27
15678;BME280;7939;50.814;6.368;2023-07-28T06:35:02;99060.13;;;21.32;69.12
15678;BME280;7939;50.814;6.368;2023-07-28T06:37:30;99062.63;;;21.34;69.50
15678;BME280;7939;50.814;6.368;2023-07-28T06:39:57;99066.06;;;21.34;69.65
15678;BME280;7939;50.814;6.368;2023-07-28T06:42:23;99069.50;;;21.35;68.88
15678;BME280;7939;50.814;6.368;2023-07-28T06:44:50;99066.91;;;21.35;68.81
15678;BME280;7939;50.814;6.368;2023-07-28T06:47:17;99070.34;;;21.35;68.67
15678;BME280;7939;50.814;6.368;2023-07-28T06:49:44;99072.84;;;21.37;68.44
15678;BME280;7939;50.814;6.368;2023-07-28T06:52:11;99078.91;;;21.37;68.35
15678;BME280;7939;50.814;6.368;2023-07-28T06:54:39;99076.31;;;21.37;68.42
15678;BME280;7939;50.814;6.368;2023-07-28T06:57:06;99091.81;;;21.39;69.17
15678;BME280;7939;50.814;6.368;2023-07-28T06:59:33;99086.63;;;21.39;69.18
15678;BME280;7939;50.814;6.368;2023-07-28T07:02:00;99085.69;;;21.40;69.58
15678;BME280;7939;50.814;6.368;2023-07-28T07:04:26;99091.72;;;21.40;68.94
15678;BME280;7939;50.814;6.368;2023-07-28T07:06:53;99096.00;;;21.41;69.63
15678;BME280;7939;50.814;6.368;2023-07-28T07:09:20;99099.44;;;21.42;69.14
15678;BME280;7939;50.814;6.368;2023-07-28T07:11:48;99101.09;;;21.43;68.58
15678;BME280;7939;50.814;6.368;2023-07-28T07:14:15;99106.16;;;21.46;69.12
15678;BME280;7939;50.814;6.368;2023-07-28T07:16:42;99111.34;;;21.46;69.58
15678;BME280;7939;50.814;6.368;2023-07-28T07:19:09;99112.19;;;21.46;68.42
15678;BME280;7939;50.814;6.368;2023-07-28T07:21:35;99110.25;;;21.50;69.10
15678;BME280;7939;50.814;6.368;2023-07-28T07:24:03;99116.31;;;21.50;68.70
15678;BME280;7939;50.814;6.368;2023-07-28T07:26:29;99118.81;;;21.52;69.16
15678;BME280;7939;50.814;6.368;2023-07-28T07:28:58;99116.94;;;21.54;69.39
15678;BME280;7939;50.814;6.368;2023-07-28T07:31:24;99123.75;;;21.57;68.88
15678;BME280;7939;50.814;6.368;2023-07-28T07:33:51;99129.78;;;21.57;68.69
15678;BME280;7939;50.814;6.368;2023-07-28T07:36:19;99128.03;;;21.58;68.16
15678;BME280;7939;50.814;6.368;2023-07-28T07:38:46;99122.00;;;21.57;67.67
15678;BME280;7939;50.814;6.368;2023-07-28T07:41:14;99130.44;;;21.61;68.25
15678;BME280;7939;50.814;6.368;2023-07-28T07:43:44;99128.69;;;21.61;68.44
15678;BME280;7939;50.814;6.368;2023-07-28T07:46:13;99126.91;;;21.62;68.50
15678;BME280;7939;50.814;6.368;2023-07-28T07:48:40;99126.03;;;21.63;69.65
15678;BME280;7939;50.814;6.368;2023-07-28T07:51:07;99130.09;;;21.67;70.88
15678;BME280;7939;50.814;6.368;2023-07-28T07:53:34;99129.38;;;21.65;71.88
15678;BME280;7939;50.814;6.368;2023-07-28T07:56:02;99127.41;;;21.68;71.40
15678;BME280;7939;50.814;6.368;2023-07-28T07:58:29;99129.84;;;21.71;71.10
15678;BME280;7939;50.814;6.368;2023-07-28T08:00:56;99136.63;;;21.74;71.01
15678;BME280;7939;50.814;6.368;2023-07-28T08:03:24;99130.53;;;21.75;70.81
15678;BME280;7939;50.814;6.368;2023-07-28T08:05:52;99135.66;;;21.76;70.55
15678;BME280;7939;50.814;6.368;2023-07-28T08:08:20;99134.81;;;21.76;69.69
15678;BME280;7939;50.814;6.368;2023-07-28T08:10:47;99132.13;;;21.77;69.63
15678;BME280;7939;50.814;6.368;2023-07-28T08:13:14;99133.88;;;21.77;69.35
15678;BME280;7939;50.814;6.368;2023-07-28T08:15:42;99128.50;;;21.80;69.83
15678;BME280;7939;50.814;6.368;2023-07-28T08:18:10;99138.91;;;21.80;69.72
15678;BME280;7939;50.814;6.368;2023-07-28T08:20:38;99138.84;;;21.81;68.75
15678;BME280;7939;50.814;6.368;2023-07-28T08:23:05;99137.06;;;21.82;68.81
15678;BME280;7939;50.814;6.368;2023-07-28T08:25:31;99126.56;;;21.84;68.60
15678;BME280;7939;50.814;6.368;2023-07-28T08:27:59;99129.91;;;21.86;68.52
15678;BME280;7939;50.814;6.368;2023-07-28T08:30:26;99131.53;;;21.88;69.15
15678;BME280;7939;50.814;6.368;2023-07-28T08:32:53;99138.41;;;21.89;68.55
15678;BME280;7939;50.814;6.368;2023-07-28T08:35:19;99141.63;;;21.93;68.97
15678;BME280;7939;50.814;6.368;2023-07-28T08:37:47;99126.88;;;21.93;68.87
15678;BME280;7939;50.814;6.368;2023-07-28T08:40:14;99135.44;;;21.95;68.83
15678;BME280;7939;50.814;6.368;2023-07-28T08:42:41;99141.28;;;21.99;68.93
15678;BME280;7939;50.814;6.368;2023-07-28T08:45:08;99145.56;;;22.00;68.76
15678;BME280;7939;50.814;6.368;2023-07-28T08:47:35;99150.72;;;22.01;68.10
15678;BME280;7939;50.814;6.368;2023-07-28T08:50:03;99157.50;;;22.04;68.52
15678;BME280;7939;50.814;6.368;2023-07-28T08:52:30;99149.53;;;22.07;68.91
15678;BME280;7939;50.814;6.368;2023-07-28T08:54:58;99143.38;;;22.08;68.47
15678;BME280;7939;50.814;6.368;2023-07-28T08:57:25;99158.00;;;22.11;68.38
15678;BME280;7939;50.814;6.368;2023-07-28T08:59:51;99150.97;;;22.13;68.53
15678;BME280;7939;50.814;6.368;2023-07-28T09:02:19;99151.81;;;22.13;68.45
15678;BME280;7939;50.814;6.368;2023-07-28T09:04:48;99160.34;;;22.15;68.48
15678;BME280;7939;50.814;6.368;2023-07-28T09:07:15;99155.16;;;22.15;68.65
15678;BME280;7939;50.814;6.368;2023-07-28T09:09:41;99156.72;;;22.18;68.83
15678;BME280;7939;50.814;6.368;2023-07-28T09:12:09;99156.66;;;22.19;68.51
15678;BME280;7939;50.814;6.368;2023-07-28T09:14:37;99161.78;;;22.21;68.27
15678;BME280;7939;50.814;6.368;2023-07-28T09:17:08;99160.75;;;22.23;68.55
15678;BME280;7939;50.814;6.368;2023-07-28T09:19:49;99158.03;;;22.25;67.96
15678;BME280;7939;50.814;6.368;2023-07-28T09:22:15;99165.78;;;22.26;67.89
15678;BME280;7939;50.814;6.368;2023-07-28T09:24:42;99164.03;;;22.27;68.07
15678;BME280;7939;50.814;6.368;2023-07-28T09:27:19;99168.19;;;22.29;68.30
15678;BME280;7939;50.814;6.368;2023-07-28T09:29:48;99169.03;;;22.30;68.01
15678;BME280;7939;50.814;6.368;2023-07-28T09:32:14;99170.63;;;22.32;67.72
15678;BME280;7939;50.814;6.368;2023-07-28T09:34:41;99157.53;;;22.34;67.98
15678;BME280;7939;50.814;6.368;2023-07-28T09:37:09;99158.25;;;22.36;68.54
15678;BME280;7939;50.814;6.368;2023-07-28T09:39:36;99163.09;;;22.42;68.16
15678;BME280;7939;50.814;6.368;2023-07-28T09:42:03;99154.19;;;22.46;68.37
15678;BME280;7939;50.814;6.368;2023-07-28T09:44:35;99147.03;;;22.50;68.15
15678;BME280;7939;50.814;6.368;2023-07-28T09:47:03;99158.84;;;22.55;68.33
15678;BME280;7939;50.814;6.368;2023-07-28T09:49:35;99149.94;;;22.59;67.97
15678;BME280;7939;50.814;6.368;2023-07-28T09:52:05;99154.88;;;22.64;67.83
15678;BME280;7939;50.814;6.368;2023-07-28T09:54:36;99154.69;;;22.81;67.96
15678;BME280;7939;50.814;6.368;2023-07-28T09:57:08;99148.31;;;23.15;66.81
15678;BME280;7939;50.814;6.368;2023-07-28T09:59:40;99158.16;;;23.39;66.91
15678;BME280;7939;50.814;6.368;2023-07-28T10:02:08;99156.72;;;23.62;66.28
15678;BME280;7939;50.814;6.368;2023-07-28T10:04:35;99165.97;;;23.80;65.58
15678;BME280;7939;50.814;6.368;2023-07-28T10:07:05;99160.06;;;23.91;65.12
15678;BME280;7939;50.814;6.368;2023-07-28T10:09:33;99158.44;;;24.03;64.72
15678;BME280;7939;50.814;6.368;2023-07-28T10:12:00;99166.59;;;24.11;64.62
15678;BME280;7939;50.814;6.368;2023-07-28T10:14:29;99168.09;;;24.15;64.52
15678;BME280;7939;50.814;6.368;2023-07-28T10:16:59;99166.84;;;24.20;64.44
15678;BME280;7939;50.814;6.368;2023-07-28T10:19:27;99169.25;;;24.23;64.37
15678;BME280;7939;50.814;6.368;2023-07-28T10:22:00;99172.38;;;24.29;64.50
15678;BME280;7939;50.814;6.368;2023-07-28T10:24:49;99172.09;;;24.33;64.64
15678;BME280;7939;50.814;6.368;2023-07-28T10:27:28;99182.34;;;24.36;64.55
15678;BME280;7939;50.814;6.368;2023-07-28T10:29:56;99180.47;;;24.38;64.36
15678;BME280;7939;50.814;6.368;2023-07-28T10:32:26;99187.91;;;24.44;64.09
15678;BME280;7939;50.814;6.368;2023-07-28T10:35:00;99187.72;;;24.47;63.87
15678;BME280;7939;50.814;6.368;2023-07-28T10:37:28;99188.31;;;24.51;63.65
15678;BME280;7939;50.814;6.368;2023-07-28T10:40:22;99178.63;;;24.53;63.83
15678;BME280;7939;50.814;6.368;2023-07-28T10:42:49;99185.41;;;24.56;63.59
15678;BME280;7939;50.814;6.368;2023-07-28T10:45:16;99186.88;;;24.60;63.58
15678;BME280;7939;50.814;6.368;2023-07-28T10:47:45;99194.63;;;24.61;63.43
15678;BME280;7939;50.814;6.368;2023-07-28T10:50:13;99183.75;;;24.67;63.21
15678;BME280;7939;50.814;6.368;2023-07-28T10:52:40;99178.41;;;24.69;63.15
15678;BME280;7939;50.814;6.368;2023-07-28T10:55:12;99177.28;;;24.73;63.18
15678;BME280;7939;50.814;6.368;2023-07-28T10:57:40;99179.66;;;24.76;63.22
15678;BME280;7939;50.814;6.368;2023-07-28T11:00:08;99176.56;;;24.84;62.61
15678;BME280;7939;50.814;6.368;2023-07-28T11:02:38;99179.78;;;24.87;62.50
15678;BME280;7939;50.814;6.368;2023-07-28T11:05:10;99188.38;;;24.89;62.56
15678;BME280;7939;50.814;6.368;2023-07-28T11:07:38;99173.28;;;24.93;62.48
15678;BME280;7939;50.814;6.368;2023-07-28T11:10:05;99177.50;;;24.95;62.31
15678;BME280;7939;50.814;6.368;2023-07-28T11:12:33;99171.19;;;24.98;62.12
15678;BME280;7939;50.814;6.368;2023-07-28T11:14:59;99175.28;;;25.02;62.04
15678;BME280;7939;50.814;6.368;2023-07-28T11:17:26;99181.25;;;25.04;62.11
15678;BME280;7939;50.814;6.368;2023-07-28T11:19:53;99169.66;;;25.08;62.05
15678;BME280;7939;50.814;6.368;2023-07-28T11:22:20;99171.09;;;25.12;61.89
15678;BME280;7939;50.814;6.368;2023-07-28T11:24:50;99170.16;;;25.13;61.85
15678;BME280;7939;50.814;6.368;2023-07-28T11:27:17;99169.84;;;25.18;61.43
15678;BME280;7939;50.814;6.368;2023-07-28T11:29:44;99172.34;;;25.19;61.59
15678;BME280;7939;50.814;6.368;2023-07-28T11:32:10;99174.00;;;25.20;61.40
15678;BME280;7939;50.814;6.368;2023-07-28T11:34:37;99170.25;;;25.24;61.32
15678;BME280;7939;50.814;6.368;2023-07-28T11:37:06;99174.44;;;25.27;61.35
15678;BME280;7939;50.814;6.368;2023-07-28T11:39:36;99173.59;;;25.26;61.14
15678;BME280;7939;50.814;6.368;2023-07-28T11:42:05;99176.13;;;25.28;60.76
15678;BME280;7939;50.814;6.368;2023-07-28T11:44:32;99177.66;;;25.31;61.01
15678;BME280;7939;50.814;6.368;2023-07-28T11:46:58;99183.84;;;25.29;61.03
15678;BME280;7939;50.814;6.368;2023-07-28T11:49:25;99181.88;;;25.33;61.11
15678;BME280;7939;50.814;6.368;2023-07-28T11:51:54;99180.09;;;25.34;61.11
15678;BME280;7939;50.814;6.368;2023-07-28T11:54:25;99181.00;;;25.33;60.91
15678;BME280;7939;50.814;6.368;2023-07-28T11:56:56;99176.63;;;25.33;60.96
15678;BME280;7939;50.814;6.368;2023-07-28T11:59:23;99175.78;;;25.33;60.77
15678;BME280;7939;50.814;6.368;2023-07-28T12:01:55;99171.41;;;25.33;60.75
15678;BME280;7939;50.814;6.368;2023-07-28T12:04:22;99169.63;;;25.34;60.94
15678;BME280;7939;50.814;6.368;2023-07-28T12:07:07;99162.69;;;25.33;60.76
15678;BME280;7939;50.814;6.368;2023-07-28T12:09:47;99176.63;;;25.33;60.74
15678;BME280;7939;50.814;6.368;2023-07-28T12:12:18;99177.56;;;25.32;60.50
15678;BME280;7939;50.814;6.368;2023-07-28T12:14:45;99175.78;;;25.33;60.90
15678;BME280;7939;50.814;6.368;2023-07-28T12:17:12;99168.16;;;25.29;60.68
15678;BME280;7939;50.814;6.368;2023-07-28T12:19:41;99170.66;;;25.31;60.64
15678;BME280;7939;50.814;6.368;2023-07-28T12:22:07;99166.16;;;25.33;60.71
15678;BME280;7939;50.814;6.368;2023-07-28T12:24:34;99176.63;;;25.33;60.65
15678;BME280;7939;50.814;6.368;2023-07-28T12:27:00;99179.44;;;25.30;61.45
15678;BME280;7939;50.814;6.368;2023-07-28T12:29:28;99176.13;;;25.28;61.59
15678;BME280;7939;50.814;6.368;2023-07-28T12:31:55;99176.94;;;25.28;61.80
15678;BME280;7939;50.814;6.368;2023-07-28T12:34:22;99177.06;;;25.27;62.16
15678;BME280;7939;50.814;6.368;2023-07-28T12:36:48;99180.41;;;25.29;61.83
15678;BME280;7939;50.814;6.368;2023-07-28T12:39:16;99180.72;;;25.24;61.73
15678;BME280;7939;50.814;6.368;2023-07-28T12:41:42;99194.75;;;25.23;61.71
15678;BME280;7939;50.814;6.368;2023-07-28T12:44:10;99197.34;;;25.23;61.89
15678;BME280;7939;50.814;6.368;2023-07-28T12:46:38;99186.16;;;25.21;61.76
15678;BME280;7939;50.814;6.368;2023-07-28T12:49:05;99191.47;;;25.20;62.40
15678;BME280;7939;50.814;6.368;2023-07-28T12:51:32;99180.31;;;25.18;62.11
15678;BME280;7939;50.814;6.368;2023-07-28T12:53:59;99187.19;;;25.19;62.48
15678;BME280;7939;50.814;6.368;2023-07-28T12:56:25;99180.19;;;25.19;62.26
15678;BME280;7939;50.814;6.368;2023-07-28T12:58:52;99190.75;;;25.18;62.06
15678;BME280;7939;50.814;6.368;2023-07-28T13:01:18;99188.16;;;25.18;62.02
15678;BME280;7939;50.814;6.368;2023-07-28T13:03:47;99190.03;;;25.16;62.45
15678;BME280;7939;50.814;6.368;2023-07-28T13:06:13;99186.47;;;25.17;62.39
15678;BME280;7939;50.814;6.368;2023-07-28T13:08:40;99193.50;;;25.16;62.17
15678;BME280;7939;50.814;6.368;2023-07-28T13:11:06;99182.31;;;25.14;62.37
15678;BME280;7939;50.814;6.368;2023-07-28T13:13:33;99182.31;;;25.14;62.21